Detroit, MI

8:09 PM EDT on September 02, 2015 (GMT -0400)
University | | Change Station
CLOSE
Current Station
Personal Weather Station
Location: Windsor, ONTARIO
Elevation: 607 ft
Nearby Weather Stations

Elev 607 ft 42.31 °N, 83.06 °W | Updated 1 minute ago

Partly Cloudy
Partly Cloudy
79.0 °F
Feels Like 82 °F
N
0.0
Wind Variable Wind from NW

Today
High -- | Low -- °F
--% Chance of Precip.
Yesterday
High -- | Low -- °F
Precip. -- in
6:58 AM 8:05 PM
Waning Gibbous, 76% visible
Pressure 29.95 in
Visibility 10.0 miles
Clouds Clear
Heat Index 82 °F
Dew Point 69 °F
Humidity 72%
Rainfall 0.38 in
Snow Depth Not available.
UV 0 out of 12
Pollen 7.90 out of 12
Air Quality Not available.
Flu Activity Not available.
METAR KDET 022353Z 35005KT 10SM CLR 27/18 A2996 RMK AO2 PK WND 35028/2307 WSHFT 2249 LTG DSNT E AND SE SLP141 T02720178 10328 20272 53005
Pressure 29.95 in
Visibility 10.0 miles
Clouds Clear
Heat Index 82 °F
Dew Point 69 °F
Humidity 72%
Rainfall 0.38 in
Snow Depth Not available.
UV 0 out of 12
Pollen 7.90 out of 12
Air Quality Not available.
Flu Activity Not available.
METAR KDET 022353Z 35005KT 10SM CLR 27/18 A2996 RMK AO2 PK WND 35028/2307 WSHFT 2249 LTG DSNT E AND SE SLP141 T02720178 10328 20272 53005

10-Day Weather Forecast

×

Almanac

Astronomy

Sep. 02, 2015 Rise Set
Actual Time
Civil Twilight
Nautical Twilight
Astronomical Twilight
Moon
Length of Visible Light
Length of Day
Tomorrow will be .
, % of the Moon is Illuminated

Today's Extremes

State Highs State Lows

Community

WunderPhotos

Upload Photos

1,851,846 photos uploaded!

WunderBlogs® & News

Nearby

Air Quality

  Air Quality AQ Index Pollutant
Not available.

Snow Depth

Station Depth Elevation

Earthquake Activity

City Distance Mag. Time & Date
Minimum magnitude displayed is 2.5.

Coastal Water Temperatures

Place Temperature

Stations

Nearby Weather Stations

Station Location Temp. Windchill Dew Point Humidity Wind Precip. Elev Updated Type